createdAt,value
2022-07-31T00:01:45.100Z,7.13
2022-07-31T00:04:14.506Z,4.67
2022-07-31T00:06:44.269Z,3.72
2022-07-31T00:09:48.949Z,4.10
2022-07-31T00:12:03.467Z,6.32
2022-07-31T00:14:33.915Z,4.00
2022-07-31T00:17:03.088Z,7.30
2022-07-31T00:19:32.794Z,4.60
2022-07-31T00:22:02.130Z,4.95
2022-07-31T00:24:31.221Z,4.35
2022-07-31T00:27:00.454Z,5.40
2022-07-31T00:29:30.622Z,5.45
2022-07-31T00:32:01.177Z,5.18
2022-07-31T00:34:30.710Z,4.70
2022-07-31T00:36:59.856Z,5.15
2022-07-31T00:39:30.881Z,5.05
2022-07-31T00:41:59.978Z,5.95
2022-07-31T00:44:29.337Z,4.50
2022-07-31T00:47:02.176Z,5.78
2022-07-31T00:49:37.239Z,5.30
2022-07-31T00:52:08.255Z,11.25
2022-07-31T00:54:37.689Z,5.30
2022-07-31T00:57:07.606Z,4.63
2022-07-31T00:59:37.158Z,5.35
2022-07-31T01:02:08.299Z,5.22
2022-07-31T01:04:41.794Z,6.15
2022-07-31T01:07:14.904Z,5.60
2022-07-31T01:09:48.809Z,5.25
2022-07-31T01:12:26.126Z,5.18
2022-07-31T01:14:59.362Z,6.28
2022-07-31T01:17:32.747Z,9.57
2022-07-31T01:20:05.804Z,5.75
2022-07-31T01:23:13.567Z,8.32
2022-07-31T01:26:00.658Z,6.60
2022-07-31T01:29:13.826Z,5.40
2022-07-31T01:31:47.424Z,6.05
2022-07-31T01:34:27.202Z,5.72
2022-07-31T01:37:10.581Z,5.25
2022-07-31T01:39:45.242Z,7.03
2022-07-31T01:42:18.103Z,6.05
2022-07-31T01:44:54.974Z,5.13
2022-07-31T01:47:27.953Z,5.80
2022-07-31T01:49:59.364Z,6.55
2022-07-31T01:52:31.237Z,8.57
2022-07-31T01:55:02.439Z,6.70
2022-07-31T01:57:34.682Z,8.35
2022-07-31T02:00:33.911Z,7.20
2022-07-31T02:03:07.695Z,6.47
2022-07-31T02:05:42.121Z,8.07
2022-07-31T02:08:13.166Z,8.40
2022-07-31T02:10:46.820Z,6.97
2022-07-31T02:13:18.594Z,9.68
2022-07-31T02:15:50.058Z,9.43
2022-07-31T02:18:23.499Z,10.90
2022-07-31T02:21:18.985Z,7.07
2022-07-31T02:23:48.194Z,10.73
2022-07-31T02:26:18.193Z,7.05
2022-07-31T02:28:48.950Z,9.63
2022-07-31T02:31:20.832Z,7.13
2022-07-31T02:33:52.494Z,7.25
2022-07-31T02:36:23.404Z,7.30
2022-07-31T02:38:55.002Z,9.15
2022-07-31T02:41:26.084Z,10.90
2022-07-31T02:43:55.961Z,8.90
2022-07-31T02:46:28.804Z,8.98
2022-07-31T02:48:58.953Z,6.78
2022-07-31T02:51:29.265Z,7.85
2022-07-31T02:54:11.675Z,7.78
2022-07-31T02:56:41.774Z,8.70
2022-07-31T02:59:10.954Z,8.32
2022-07-31T03:02:01.325Z,7.90
2022-07-31T03:04:32.764Z,8.85
2022-07-31T03:07:01.881Z,7.30
2022-07-31T03:09:31.163Z,7.03
2022-07-31T03:12:21.399Z,7.10
2022-07-31T03:14:51.078Z,8.40
2022-07-31T03:17:22.440Z,6.88
2022-07-31T03:19:53.304Z,6.60
2022-07-31T03:22:22.444Z,9.25
2022-07-31T03:24:52.601Z,6.97
2022-07-31T03:27:22.022Z,7.00
2022-07-31T03:29:51.109Z,8.38
2022-07-31T03:32:21.622Z,7.35
2022-07-31T03:34:50.979Z,8.65
2022-07-31T03:37:20.815Z,10.63
2022-07-31T03:39:50.011Z,7.38
2022-07-31T03:42:20.471Z,7.40
2022-07-31T03:44:50.543Z,6.93
2022-07-31T03:47:21.746Z,7.63
2022-07-31T03:49:51.237Z,6.35
2022-07-31T03:52:21.029Z,6.47
2022-07-31T03:55:28.496Z,7.00
2022-07-31T03:57:59.806Z,7.07
2022-07-31T04:00:29.309Z,8.20
2022-07-31T04:03:08.247Z,7.50
2022-07-31T04:05:57.618Z,5.70
2022-07-31T04:08:27.411Z,6.10
2022-07-31T04:10:56.529Z,6.35
2022-07-31T04:13:27.154Z,5.93
2022-07-31T04:15:56.270Z,6.50
2022-07-31T04:18:26.749Z,7.93
2022-07-31T04:20:55.897Z,7.50
2022-07-31T04:23:32.199Z,7.35
2022-07-31T04:26:26.422Z,6.03
2022-07-31T04:29:04.341Z,6.90
2022-07-31T04:31:38.523Z,9.85
2022-07-31T04:34:11.898Z,6.47
2022-07-31T04:36:43.701Z,5.68
2022-07-31T04:39:12.751Z,7.10
2022-07-31T04:41:42.393Z,5.85
2022-07-31T04:44:11.710Z,6.00
2022-07-31T04:47:01.310Z,6.40
2022-07-31T04:49:35.105Z,6.13
2022-07-31T04:52:07.158Z,6.78
2022-07-31T04:54:38.698Z,10.80
2022-07-31T04:57:10.331Z,6.13
2022-07-31T04:59:59.199Z,6.10
2022-07-31T05:02:28.811Z,6.03
2022-07-31T05:04:59.385Z,5.53
2022-07-31T05:07:38.171Z,6.63
2022-07-31T05:10:35.008Z,6.30
2022-07-31T05:13:04.534Z,5.53
2022-07-31T05:15:36.106Z,5.77
2022-07-31T05:18:07.617Z,6.40
2022-07-31T05:20:56.457Z,5.53
2022-07-31T05:23:55.723Z,5.77
2022-07-31T05:26:40.223Z,5.83
2022-07-31T05:29:09.245Z,6.23
2022-07-31T05:31:39.021Z,6.30
2022-07-31T05:34:30.674Z,5.00
2022-07-31T05:37:02.625Z,7.00
2022-07-31T05:39:34.097Z,9.50
2022-07-31T05:42:21.640Z,7.93
2022-07-31T05:45:11.122Z,10.03
2022-07-31T05:47:41.211Z,5.40
2022-07-31T05:50:11.935Z,5.93
2022-07-31T05:52:42.677Z,6.50
2022-07-31T05:55:32.197Z,6.27
2022-07-31T05:58:16.851Z,5.63
2022-07-31T06:00:48.841Z,5.47
2022-07-31T06:03:23.797Z,5.20
2022-07-31T06:06:04.999Z,6.77
2022-07-31T06:08:35.503Z,5.57
2022-07-31T06:11:05.465Z,6.50
2022-07-31T06:13:34.550Z,5.90
2022-07-31T06:16:16.182Z,6.50
2022-07-31T06:18:45.258Z,5.70
2022-07-31T06:23:44.183Z,7.67
2022-07-31T06:26:32.054Z,6.80
2022-07-31T06:29:01.523Z,5.43
2022-07-31T06:31:30.735Z,5.73
2022-07-31T06:34:01.048Z,10.80
2022-07-31T06:36:38.771Z,5.87
2022-07-31T06:39:12.222Z,6.10
2022-07-31T06:42:20.201Z,5.90
2022-07-31T06:45:09.343Z,5.20
2022-07-31T06:47:57.243Z,5.47
2022-07-31T06:50:49.572Z,7.53
2022-07-31T06:53:34.068Z,6.07
2022-07-31T06:56:05.696Z,5.60
2022-07-31T06:58:34.929Z,5.17
2022-07-31T07:01:04.785Z,5.20
2022-07-31T07:03:33.900Z,5.60
2022-07-31T07:06:04.522Z,5.57
2022-07-31T07:08:33.746Z,6.70
2022-07-31T07:11:04.616Z,5.13
2022-07-31T07:13:45.609Z,7.47
2022-07-31T07:16:16.781Z,5.13
2022-07-31T07:18:46.543Z,5.17
2022-07-31T07:21:15.912Z,5.90
2022-07-31T07:23:45.061Z,6.00
2022-07-31T07:26:21.379Z,5.43
2022-07-31T07:28:51.030Z,5.63
2022-07-31T07:31:20.904Z,5.07
2022-07-31T07:33:51.865Z,8.60
2022-07-31T07:36:25.108Z,4.93
2022-07-31T07:38:59.165Z,5.00
2022-07-31T07:41:29.858Z,5.77
2022-07-31T07:43:59.160Z,4.87
2022-07-31T07:46:29.855Z,6.23
2022-07-31T07:49:02.522Z,4.87
2022-07-31T07:51:59.607Z,7.77
2022-07-31T07:54:35.419Z,18.23
2022-07-31T07:57:29.026Z,5.20
2022-07-31T08:00:17.571Z,4.83
2022-07-31T08:03:50.439Z,6.13
2022-07-31T08:05:42.106Z,4.83
2022-07-31T08:08:12.400Z,5.07
2022-07-31T08:10:44.483Z,10.10
2022-07-31T08:13:21.598Z,4.57
2022-07-31T08:16:09.118Z,4.60
2022-07-31T08:18:46.926Z,4.10
2022-07-31T08:21:16.195Z,6.87
2022-07-31T08:23:45.478Z,3.80
2022-07-31T08:26:14.722Z,4.40
2022-07-31T08:28:50.709Z,4.53
2022-07-31T08:31:21.796Z,4.63
2022-07-31T08:34:06.463Z,4.63
2022-07-31T08:36:38.259Z,6.37
2022-07-31T08:39:07.708Z,9.10
2022-07-31T08:41:49.291Z,4.63
2022-07-31T08:44:25.814Z,4.40
2022-07-31T08:47:01.401Z,4.23
2022-07-31T08:49:33.602Z,5.70
2022-07-31T08:52:04.207Z,5.17
2022-07-31T08:54:58.756Z,4.50
2022-07-31T08:57:27.983Z,6.50
2022-07-31T08:59:59.840Z,4.33
2022-07-31T09:02:29.110Z,8.07
2022-07-31T09:05:42.724Z,4.23
2022-07-31T09:08:14.701Z,6.43
2022-07-31T09:10:49.942Z,7.20
2022-07-31T09:13:20.383Z,3.43
2022-07-31T09:15:59.102Z,5.07
2022-07-31T09:18:29.695Z,3.67
2022-07-31T09:21:08.262Z,4.83
2022-07-31T09:23:47.416Z,4.13
2022-07-31T09:26:16.990Z,3.50
2022-07-31T09:28:48.814Z,3.77
2022-07-31T09:31:22.103Z,6.57
2022-07-31T09:34:02.639Z,6.10
2022-07-31T09:36:37.688Z,4.50
2022-07-31T09:39:30.572Z,4.17
2022-07-31T09:42:45.762Z,3.60
2022-07-31T09:45:24.537Z,3.40
2022-07-31T09:48:13.773Z,7.93
2022-07-31T09:50:55.674Z,5.70
2022-07-31T09:53:26.030Z,3.10
2022-07-31T09:56:08.191Z,4.17
2022-07-31T09:58:37.539Z,3.30
2022-07-31T10:01:07.870Z,2.73
2022-07-31T10:03:42.241Z,3.50
2022-07-31T10:06:16.429Z,3.00
2022-07-31T10:08:47.618Z,2.83
2022-07-31T10:11:39.935Z,4.67
2022-07-31T10:14:26.986Z,2.67
2022-07-31T10:17:04.490Z,5.23
2022-07-31T10:19:48.295Z,4.27
2022-07-31T10:22:45.727Z,2.93
2022-07-31T10:25:23.614Z,3.50
2022-07-31T10:27:54.202Z,2.60
2022-07-31T10:30:28.136Z,3.33
2022-07-31T10:33:00.736Z,2.87
2022-07-31T10:35:31.829Z,3.53
2022-07-31T10:38:26.221Z,2.63
2022-07-31T10:41:29.927Z,2.53
2022-07-31T10:44:06.869Z,4.17
2022-07-31T10:46:41.909Z,7.13
2022-07-31T10:49:42.416Z,6.80
2022-07-31T10:52:34.760Z,2.60
2022-07-31T10:55:27.106Z,2.77
2022-07-31T10:58:20.165Z,4.90
2022-07-31T11:00:53.872Z,6.10
2022-07-31T11:03:44.197Z,2.80
2022-07-31T11:06:41.044Z,2.90
2022-07-31T11:09:50.506Z,3.80
2022-07-31T11:12:41.011Z,4.80
2022-07-31T11:15:23.380Z,5.40
2022-07-31T11:18:21.218Z,2.87
2022-07-31T11:21:38.079Z,4.60
2022-07-31T11:24:02.994Z,3.10
2022-07-31T11:27:48.854Z,2.60
2022-07-31T11:30:19.846Z,2.83
2022-07-31T11:32:50.556Z,2.60
2022-07-31T11:35:28.470Z,2.67
2022-07-31T11:37:58.492Z,4.33
2022-07-31T11:40:29.653Z,3.23
2022-07-31T11:45:56.172Z,3.00
2022-07-31T11:48:27.883Z,3.27
2022-07-31T11:50:57.450Z,2.67
2022-07-31T11:53:27.542Z,2.37
2022-07-31T11:56:00.695Z,2.50
2022-07-31T11:58:32.320Z,2.60
2022-07-31T12:01:06.634Z,2.80
2022-07-31T12:03:40.708Z,2.60
2022-07-31T12:06:12.468Z,3.27
2022-07-31T12:08:44.154Z,7.50
2022-07-31T12:11:13.583Z,5.00
2022-07-31T12:13:48.073Z,5.63
2022-07-31T12:16:19.735Z,3.00
2022-07-31T12:18:54.873Z,3.10
2022-07-31T12:21:35.021Z,3.33
2022-07-31T12:24:11.778Z,4.67
2022-07-31T12:26:51.117Z,3.10
2022-07-31T12:29:32.932Z,2.67
2022-07-31T12:32:10.259Z,2.80
2022-07-31T12:34:41.670Z,3.03
2022-07-31T12:37:13.114Z,2.70
2022-07-31T12:40:00.763Z,3.00
2022-07-31T12:42:40.984Z,2.63
2022-07-31T12:45:17.995Z,2.90
2022-07-31T12:47:54.805Z,3.40
2022-07-31T12:50:25.410Z,3.00
2022-07-31T12:52:55.500Z,3.13
2022-07-31T12:55:24.612Z,3.10
2022-07-31T12:57:54.554Z,2.50
2022-07-31T13:00:27.104Z,4.73
2022-07-31T13:02:58.946Z,3.20
2022-07-31T13:05:29.484Z,2.80
2022-07-31T13:07:58.848Z,3.67
2022-07-31T13:10:31.942Z,3.00
2022-07-31T13:13:01.816Z,3.07
2022-07-31T13:15:31.494Z,3.50
2022-07-31T13:18:03.294Z,2.80
2022-07-31T13:20:33.215Z,3.00
2022-07-31T13:23:02.948Z,3.00
2022-07-31T13:25:32.126Z,3.83
2022-07-31T13:28:01.650Z,4.57
2022-07-31T13:30:30.846Z,4.07
2022-07-31T13:33:01.432Z,2.37
2022-07-31T13:35:30.662Z,5.30
2022-07-31T13:38:00.030Z,2.90
2022-07-31T13:40:47.233Z,3.63
2022-07-31T13:43:17.133Z,3.47
2022-07-31T13:45:46.433Z,2.40
2022-07-31T13:48:17.392Z,2.90
2022-07-31T13:50:46.896Z,2.10
2022-07-31T13:53:16.151Z,3.07
2022-07-31T13:55:49.970Z,2.10
2022-07-31T13:58:19.530Z,3.63
2022-07-31T14:00:49.109Z,5.27
2022-07-31T14:03:21.283Z,3.20
2022-07-31T14:05:51.754Z,2.17
2022-07-31T14:08:33.316Z,2.20
2022-07-31T14:11:13.867Z,3.83
2022-07-31T14:13:44.617Z,2.93
2022-07-31T14:16:13.732Z,2.93
2022-07-31T14:18:44.370Z,4.53
2022-07-31T14:21:13.734Z,2.57
2022-07-31T14:23:46.277Z,2.70
2022-07-31T14:26:15.475Z,3.33
2022-07-31T14:28:44.691Z,3.23
2022-07-31T14:31:15.969Z,4.00
2022-07-31T14:33:47.149Z,3.77
2022-07-31T14:36:16.388Z,4.63
2022-07-31T14:38:45.461Z,2.67
2022-07-31T14:41:14.490Z,2.60
2022-07-31T14:43:43.682Z,2.50
2022-07-31T14:46:12.826Z,2.40
2022-07-31T14:48:41.992Z,4.37
2022-07-31T14:51:18.645Z,2.60
2022-07-31T14:53:52.366Z,3.47
2022-07-31T14:56:39.717Z,2.93
2022-07-31T14:59:11.301Z,6.10
2022-07-31T15:01:48.150Z,3.40
2022-07-31T15:04:19.852Z,3.50
2022-07-31T15:07:07.915Z,2.93
2022-07-31T15:09:40.482Z,2.30
2022-07-31T15:12:12.274Z,3.83
2022-07-31T15:14:41.758Z,2.30
2022-07-31T15:17:11.052Z,2.83
2022-07-31T15:19:40.343Z,4.43
2022-07-31T15:22:17.133Z,3.10
2022-07-31T15:24:49.155Z,3.03
2022-07-31T15:27:20.866Z,3.27
2022-07-31T15:30:05.956Z,3.07
2022-07-31T15:32:38.207Z,2.60
2022-07-31T15:35:10.508Z,3.03
2022-07-31T15:37:44.104Z,2.70
2022-07-31T15:40:16.951Z,3.73
2022-07-31T15:42:48.794Z,4.33
2022-07-31T15:45:20.318Z,4.37
2022-07-31T15:47:50.168Z,3.33
2022-07-31T15:50:20.622Z,3.43
2022-07-31T15:52:51.729Z,3.07
2022-07-31T15:55:20.958Z,2.77
2022-07-31T15:57:50.276Z,3.27
2022-07-31T16:00:20.045Z,4.80
2022-07-31T16:02:50.296Z,3.77
2022-07-31T16:05:35.744Z,3.03
2022-07-31T16:08:30.981Z,2.70
2022-07-31T16:10:58.817Z,3.00
2022-07-31T16:13:31.420Z,3.70
2022-07-31T16:16:00.825Z,3.03
2022-07-31T16:18:30.241Z,4.07
2022-07-31T16:20:59.743Z,2.90
2022-07-31T16:23:31.596Z,4.07
2022-07-31T16:26:01.269Z,2.90
2022-07-31T16:28:30.665Z,3.03
2022-07-31T16:31:00.205Z,4.13
2022-07-31T16:33:30.661Z,2.93
2022-07-31T16:36:02.390Z,2.70
2022-07-31T16:38:33.324Z,3.00
2022-07-31T16:41:02.483Z,3.33
2022-07-31T16:43:50.771Z,3.43
2022-07-31T16:46:21.075Z,2.80
2022-07-31T16:48:50.584Z,2.70
2022-07-31T16:51:21.929Z,2.77
2022-07-31T16:54:13.843Z,2.90
2022-07-31T16:56:46.025Z,2.30
2022-07-31T16:59:15.457Z,5.90
2022-07-31T17:01:58.350Z,2.50
2022-07-31T17:04:29.878Z,2.60
2022-07-31T17:06:59.206Z,3.70
2022-07-31T17:09:30.893Z,3.87
2022-07-31T17:12:00.321Z,3.30
2022-07-31T17:14:29.719Z,2.93
2022-07-31T17:16:59.455Z,3.37
2022-07-31T17:19:36.674Z,5.50
2022-07-31T17:22:17.917Z,4.97
2022-07-31T17:24:51.647Z,3.97
2022-07-31T17:27:24.577Z,4.13
2022-07-31T17:29:55.070Z,4.27
2022-07-31T17:32:24.575Z,2.77
2022-07-31T17:34:54.279Z,5.20
2022-07-31T17:37:26.191Z,3.37
2022-07-31T17:39:58.204Z,3.57
2022-07-31T17:42:28.565Z,3.37
2022-07-31T17:44:58.955Z,2.67
2022-07-31T17:47:28.225Z,3.17
2022-07-31T17:49:58.093Z,3.07
2022-07-31T17:52:29.688Z,2.70
2022-07-31T17:55:01.387Z,2.97
2022-07-31T17:57:30.650Z,3.10
2022-07-31T18:00:00.699Z,2.87
2022-07-31T18:02:30.259Z,2.90
2022-07-31T18:04:59.846Z,4.57
2022-07-31T18:07:29.600Z,2.60
2022-07-31T18:10:03.089Z,3.87
2022-07-31T18:12:56.876Z,2.90
2022-07-31T18:15:23.489Z,3.20
2022-07-31T18:18:05.347Z,3.13
2022-07-31T18:20:35.047Z,3.60
2022-07-31T18:23:04.378Z,2.20
2022-07-31T18:25:34.984Z,2.57
2022-07-31T18:28:07.834Z,3.37
2022-07-31T18:30:41.025Z,4.63
2022-07-31T18:33:12.673Z,2.67
2022-07-31T18:35:42.684Z,2.80
2022-07-31T18:38:11.999Z,3.67
2022-07-31T18:40:42.799Z,2.60
2022-07-31T18:43:12.203Z,5.97
2022-07-31T18:45:41.862Z,2.70
2022-07-31T18:48:11.179Z,9.00
2022-07-31T18:50:59.299Z,2.67
2022-07-31T18:53:29.977Z,2.43
2022-07-31T18:56:00.980Z,2.63
2022-07-31T18:58:30.722Z,2.40
2022-07-31T19:01:00.060Z,3.13
2022-07-31T19:03:31.074Z,3.17
2022-07-31T19:06:00.513Z,5.33
2022-07-31T19:08:29.797Z,2.40
2022-07-31T19:11:00.497Z,2.13
2022-07-31T19:13:30.210Z,2.80
2022-07-31T19:15:59.543Z,2.10
2022-07-31T19:18:29.150Z,2.37
2022-07-31T19:21:19.193Z,3.80
2022-07-31T19:23:48.473Z,2.43
2022-07-31T19:26:19.131Z,2.77
2022-07-31T19:28:48.643Z,2.67
2022-07-31T19:31:18.304Z,3.40
2022-07-31T19:33:47.843Z,2.47
2022-07-31T19:36:17.048Z,3.60
2022-07-31T19:38:46.448Z,2.57
2022-07-31T19:41:16.052Z,2.30
2022-07-31T19:43:46.765Z,3.03
2022-07-31T19:46:16.009Z,2.23
2022-07-31T19:48:48.209Z,2.20
2022-07-31T19:51:17.610Z,2.47
2022-07-31T19:53:47.325Z,5.40
2022-07-31T19:56:20.784Z,3.07
2022-07-31T19:58:52.075Z,3.17
2022-07-31T20:01:21.971Z,2.50
2022-07-31T20:03:57.375Z,3.50
2022-07-31T20:06:28.051Z,3.53
2022-07-31T20:08:59.145Z,2.50
2022-07-31T20:11:33.804Z,2.60
2022-07-31T20:14:04.498Z,3.07
2022-07-31T20:16:34.034Z,2.20
2022-07-31T20:19:03.273Z,2.47
2022-07-31T20:21:35.275Z,2.60
2022-07-31T20:24:05.443Z,2.30
2022-07-31T20:26:36.417Z,2.37
2022-07-31T20:29:07.466Z,1.93
2022-07-31T20:31:36.800Z,5.83
2022-07-31T20:34:05.996Z,2.77
2022-07-31T20:36:35.449Z,2.57
2022-07-31T20:39:04.829Z,2.30
2022-07-31T20:41:34.283Z,2.80
2022-07-31T20:44:03.970Z,2.47
2022-07-31T20:46:34.616Z,3.60
2022-07-31T20:49:04.394Z,3.03
2022-07-31T20:51:34.809Z,2.60
2022-07-31T20:54:04.463Z,3.80
2022-07-31T20:56:33.786Z,2.40
2022-07-31T20:59:03.190Z,3.77
2022-07-31T21:01:32.603Z,3.23
2022-07-31T21:04:03.263Z,2.80
2022-07-31T21:06:32.638Z,2.50
2022-07-31T21:09:04.392Z,2.50
2022-07-31T21:11:34.152Z,2.10
2022-07-31T21:14:03.807Z,3.50
2022-07-31T21:16:33.074Z,3.20
2022-07-31T21:19:03.651Z,2.53
2022-07-31T21:21:32.857Z,2.87
2022-07-31T21:24:02.693Z,2.53
2022-07-31T21:26:33.183Z,3.13
2022-07-31T21:29:03.199Z,3.03
2022-07-31T21:31:32.509Z,3.27
2022-07-31T21:34:03.780Z,4.60
2022-07-31T21:36:36.579Z,3.33
2022-07-31T21:39:09.369Z,2.80
2022-07-31T21:41:48.580Z,3.70
2022-07-31T21:44:18.778Z,3.37
2022-07-31T21:46:51.698Z,2.80
2022-07-31T21:49:24.367Z,3.67
2022-07-31T21:51:54.263Z,4.10
2022-07-31T21:54:23.496Z,3.97
2022-07-31T21:56:52.807Z,2.70
2022-07-31T21:59:22.296Z,2.60
2022-07-31T22:01:57.700Z,2.77
2022-07-31T22:04:34.417Z,2.67
2022-07-31T22:07:21.852Z,2.87
2022-07-31T22:09:51.071Z,2.60
2022-07-31T22:12:20.290Z,2.27
2022-07-31T22:14:49.546Z,2.97
2022-07-31T22:17:19.203Z,2.60
2022-07-31T22:19:50.511Z,2.43
2022-07-31T22:22:20.522Z,3.20
2022-07-31T22:24:50.500Z,2.70
2022-07-31T22:27:37.718Z,2.77
2022-07-31T22:30:09.501Z,2.83
2022-07-31T22:32:40.809Z,5.40
2022-07-31T22:35:13.377Z,2.90
2022-07-31T22:37:43.653Z,3.00
2022-07-31T22:40:13.674Z,3.10
2022-07-31T22:42:43.245Z,4.10
2022-07-31T22:45:26.041Z,2.70
2022-07-31T22:47:58.506Z,4.40
2022-07-31T22:50:29.438Z,2.60
2022-07-31T22:52:58.599Z,7.10
2022-07-31T22:55:27.888Z,3.47
2022-07-31T22:57:57.084Z,3.03
2022-07-31T23:00:26.261Z,2.80
2022-07-31T23:02:55.617Z,3.20
2022-07-31T23:05:25.016Z,4.73
2022-07-31T23:07:55.651Z,3.07
2022-07-31T23:10:25.091Z,3.00
2022-07-31T23:12:54.328Z,3.23
2022-07-31T23:15:23.580Z,5.60
2022-07-31T23:17:52.821Z,3.90
2022-07-31T23:20:22.082Z,2.90
2022-07-31T23:22:52.882Z,3.20
2022-07-31T23:25:23.801Z,3.20
2022-07-31T23:27:53.035Z,5.10
2022-07-31T23:30:24.174Z,3.47
2022-07-31T23:32:55.247Z,3.47
2022-07-31T23:35:24.850Z,3.67
2022-07-31T23:37:54.102Z,2.90
2022-07-31T23:40:24.946Z,3.50
2022-07-31T23:42:53.121Z,3.07
2022-07-31T23:45:23.515Z,3.83
2022-07-31T23:47:53.024Z,3.33
2022-07-31T23:50:22.224Z,4.43
2022-07-31T23:52:51.460Z,3.03
2022-07-31T23:55:21.252Z,5.10
2022-07-31T23:57:51.842Z,4.00
